sensor_id;sensor_type;location;lat;lon;timestamp;P1;durP1;ratioP1;P2;durP2;ratioP2
1545;SDS011;766;51.502;9.752;2022-10-14T00:00:24;56.67;;;31.60;;
1545;SDS011;766;51.502;9.752;2022-10-14T00:02:52;57.55;;;30.75;;
1545;SDS011;766;51.502;9.752;2022-10-14T00:05:21;57.45;;;31.92;;
1545;SDS011;766;51.502;9.752;2022-10-14T00:07:50;55.08;;;31.33;;
1545;SDS011;766;51.502;9.752;2022-10-14T00:10:18;52.17;;;31.10;;
1545;SDS011;766;51.502;9.752;2022-10-14T00:12:46;56.08;;;31.95;;
1545;SDS011;766;51.502;9.752;2022-10-14T00:15:15;52.30;;;30.75;;
1545;SDS011;766;51.502;9.752;2022-10-14T00:17:44;54.40;;;30.63;;
1545;SDS011;766;51.502;9.752;2022-10-14T00:20:13;56.50;;;31.25;;
1545;SDS011;766;51.502;9.752;2022-10-14T00:22:43;53.25;;;30.42;;
1545;SDS011;766;51.502;9.752;2022-10-14T00:25:11;52.25;;;32.28;;
1545;SDS011;766;51.502;9.752;2022-10-14T00:27:39;50.78;;;30.13;;
1545;SDS011;766;51.502;9.752;2022-10-14T00:30:08;53.78;;;32.10;;
1545;SDS011;766;51.502;9.752;2022-10-14T00:32:37;52.35;;;30.45;;
1545;SDS011;766;51.502;9.752;2022-10-14T00:35:05;60.35;;;30.95;;
1545;SDS011;766;51.502;9.752;2022-10-14T00:37:34;54.35;;;30.60;;
1545;SDS011;766;51.502;9.752;2022-10-14T00:40:04;52.38;;;31.63;;
1545;SDS011;766;51.502;9.752;2022-10-14T00:42:33;56.17;;;31.73;;
1545;SDS011;766;51.502;9.752;2022-10-14T00:45:06;52.67;;;29.33;;
1545;SDS011;766;51.502;9.752;2022-10-14T00:47:40;48.20;;;28.60;;
1545;SDS011;766;51.502;9.752;2022-10-14T00:50:11;48.03;;;28.25;;
1545;SDS011;766;51.502;9.752;2022-10-14T00:52:42;47.45;;;26.90;;
1545;SDS011;766;51.502;9.752;2022-10-14T00:55:16;48.13;;;27.80;;
1545;SDS011;766;51.502;9.752;2022-10-14T00:57:45;45.78;;;27.85;;
1545;SDS011;766;51.502;9.752;2022-10-14T01:00:15;44.85;;;26.40;;
1545;SDS011;766;51.502;9.752;2022-10-14T01:02:45;40.58;;;26.00;;
1545;SDS011;766;51.502;9.752;2022-10-14T01:05:15;45.65;;;26.08;;
1545;SDS011;766;51.502;9.752;2022-10-14T01:07:49;45.22;;;26.35;;
1545;SDS011;766;51.502;9.752;2022-10-14T01:10:33;45.38;;;26.23;;
1545;SDS011;766;51.502;9.752;2022-10-14T01:13:10;46.38;;;26.02;;
1545;SDS011;766;51.502;9.752;2022-10-14T01:15:48;39.88;;;25.38;;
1545;SDS011;766;51.502;9.752;2022-10-14T01:18:29;46.10;;;26.05;;
1545;SDS011;766;51.502;9.752;2022-10-14T01:21:10;45.58;;;26.88;;
1545;SDS011;766;51.502;9.752;2022-10-14T01:26:50;45.90;;;25.55;;
1545;SDS011;766;51.502;9.752;2022-10-14T01:32:26;41.33;;;25.52;;
1545;SDS011;766;51.502;9.752;2022-10-14T01:35:05;39.70;;;24.95;;
1545;SDS011;766;51.502;9.752;2022-10-14T01:37:38;44.95;;;24.77;;
1545;SDS011;766;51.502;9.752;2022-10-14T01:40:16;39.03;;;24.27;;
1545;SDS011;766;51.502;9.752;2022-10-14T01:42:48;45.13;;;23.85;;
1545;SDS011;766;51.502;9.752;2022-10-14T01:45:20;41.85;;;25.85;;
1545;SDS011;766;51.502;9.752;2022-10-14T01:47:50;43.35;;;23.30;;
1545;SDS011;766;51.502;9.752;2022-10-14T01:50:21;34.40;;;23.02;;
1545;SDS011;766;51.502;9.752;2022-10-14T01:52:54;41.83;;;23.73;;
1545;SDS011;766;51.502;9.752;2022-10-14T01:55:26;38.92;;;23.27;;
1545;SDS011;766;51.502;9.752;2022-10-14T01:57:58;37.58;;;23.95;;
1545;SDS011;766;51.502;9.752;2022-10-14T02:00:29;41.45;;;25.75;;
1545;SDS011;766;51.502;9.752;2022-10-14T02:03:03;43.50;;;24.50;;
1545;SDS011;766;51.502;9.752;2022-10-14T02:05:35;43.65;;;24.67;;
1545;SDS011;766;51.502;9.752;2022-10-14T02:08:09;38.47;;;24.48;;
1545;SDS011;766;51.502;9.752;2022-10-14T02:10:49;35.20;;;23.27;;
1545;SDS011;766;51.502;9.752;2022-10-14T02:13:30;39.97;;;23.45;;
1545;SDS011;766;51.502;9.752;2022-10-14T02:16:13;46.28;;;23.17;;
1545;SDS011;766;51.502;9.752;2022-10-14T02:18:50;41.05;;;23.85;;
1545;SDS011;766;51.502;9.752;2022-10-14T02:21:29;39.58;;;23.85;;
1545;SDS011;766;51.502;9.752;2022-10-14T02:24:04;39.97;;;23.25;;
1545;SDS011;766;51.502;9.752;2022-10-14T02:26:37;39.72;;;23.40;;
1545;SDS011;766;51.502;9.752;2022-10-14T02:29:07;41.65;;;22.77;;
1545;SDS011;766;51.502;9.752;2022-10-14T02:31:36;35.33;;;22.15;;
1545;SDS011;766;51.502;9.752;2022-10-14T02:34:08;45.22;;;22.88;;
1545;SDS011;766;51.502;9.752;2022-10-14T02:36:40;33.00;;;21.67;;
1545;SDS011;766;51.502;9.752;2022-10-14T02:39:10;39.55;;;24.40;;
1545;SDS011;766;51.502;9.752;2022-10-14T02:41:45;39.45;;;23.63;;
1545;SDS011;766;51.502;9.752;2022-10-14T02:44:14;42.35;;;24.92;;
1545;SDS011;766;51.502;9.752;2022-10-14T02:46:47;39.20;;;23.50;;
1545;SDS011;766;51.502;9.752;2022-10-14T02:49:15;38.47;;;23.58;;
1545;SDS011;766;51.502;9.752;2022-10-14T02:51:44;35.97;;;21.45;;
1545;SDS011;766;51.502;9.752;2022-10-14T02:54:12;36.90;;;21.55;;
1545;SDS011;766;51.502;9.752;2022-10-14T02:56:40;36.35;;;20.88;;
1545;SDS011;766;51.502;9.752;2022-10-14T02:59:09;38.33;;;22.02;;
1545;SDS011;766;51.502;9.752;2022-10-14T03:01:37;35.88;;;21.48;;
1545;SDS011;766;51.502;9.752;2022-10-14T03:04:07;33.80;;;20.55;;
1545;SDS011;766;51.502;9.752;2022-10-14T03:06:35;37.20;;;21.58;;
1545;SDS011;766;51.502;9.752;2022-10-14T03:09:04;37.60;;;21.33;;
1545;SDS011;766;51.502;9.752;2022-10-14T03:11:33;34.50;;;20.70;;
1545;SDS011;766;51.502;9.752;2022-10-14T03:14:02;33.58;;;20.58;;
1545;SDS011;766;51.502;9.752;2022-10-14T03:16:31;34.70;;;19.75;;
1545;SDS011;766;51.502;9.752;2022-10-14T03:18:59;34.50;;;19.60;;
1545;SDS011;766;51.502;9.752;2022-10-14T03:21:29;31.27;;;18.35;;
1545;SDS011;766;51.502;9.752;2022-10-14T03:23:57;34.08;;;19.67;;
1545;SDS011;766;51.502;9.752;2022-10-14T03:26:27;32.08;;;19.85;;
1545;SDS011;766;51.502;9.752;2022-10-14T03:28:55;36.45;;;20.55;;
1545;SDS011;766;51.502;9.752;2022-10-14T03:31:24;29.55;;;19.17;;
1545;SDS011;766;51.502;9.752;2022-10-14T03:33:52;29.23;;;18.70;;
1545;SDS011;766;51.502;9.752;2022-10-14T03:36:21;34.78;;;19.92;;
1545;SDS011;766;51.502;9.752;2022-10-14T03:38:52;31.90;;;19.45;;
1545;SDS011;766;51.502;9.752;2022-10-14T03:41:21;30.33;;;19.63;;
1545;SDS011;766;51.502;9.752;2022-10-14T03:43:49;29.63;;;17.80;;
1545;SDS011;766;51.502;9.752;2022-10-14T03:46:17;26.88;;;17.77;;
1545;SDS011;766;51.502;9.752;2022-10-14T03:48:46;29.23;;;17.98;;
1545;SDS011;766;51.502;9.752;2022-10-14T03:51:17;33.58;;;17.85;;
1545;SDS011;766;51.502;9.752;2022-10-14T03:53:46;27.80;;;18.17;;
1545;SDS011;766;51.502;9.752;2022-10-14T03:56:16;31.75;;;18.17;;
1545;SDS011;766;51.502;9.752;2022-10-14T03:58:44;27.60;;;17.92;;
1545;SDS011;766;51.502;9.752;2022-10-14T04:01:13;29.70;;;17.23;;
1545;SDS011;766;51.502;9.752;2022-10-14T04:03:41;26.23;;;16.13;;
1545;SDS011;766;51.502;9.752;2022-10-14T04:06:12;29.42;;;17.42;;
1545;SDS011;766;51.502;9.752;2022-10-14T04:08:40;26.15;;;16.65;;
1545;SDS011;766;51.502;9.752;2022-10-14T04:11:09;23.20;;;15.50;;
1545;SDS011;766;51.502;9.752;2022-10-14T04:13:41;26.52;;;16.75;;
1545;SDS011;766;51.502;9.752;2022-10-14T04:16:10;29.33;;;16.73;;
1545;SDS011;766;51.502;9.752;2022-10-14T04:18:39;23.42;;;15.07;;
1545;SDS011;766;51.502;9.752;2022-10-14T04:21:09;24.40;;;15.98;;
1545;SDS011;766;51.502;9.752;2022-10-14T04:23:44;27.77;;;16.73;;
1545;SDS011;766;51.502;9.752;2022-10-14T04:26:20;27.20;;;16.60;;
1545;SDS011;766;51.502;9.752;2022-10-14T04:28:50;25.75;;;15.82;;
1545;SDS011;766;51.502;9.752;2022-10-14T04:31:18;25.63;;;14.70;;
1545;SDS011;766;51.502;9.752;2022-10-14T04:33:48;21.90;;;14.85;;
1545;SDS011;766;51.502;9.752;2022-10-14T04:36:16;23.70;;;14.90;;
1545;SDS011;766;51.502;9.752;2022-10-14T04:38:45;23.67;;;14.93;;
1545;SDS011;766;51.502;9.752;2022-10-14T04:41:14;25.02;;;15.57;;
1545;SDS011;766;51.502;9.752;2022-10-14T04:43:42;24.05;;;14.88;;
1545;SDS011;766;51.502;9.752;2022-10-14T04:46:12;21.10;;;14.20;;
1545;SDS011;766;51.502;9.752;2022-10-14T04:48:41;23.13;;;14.73;;
1545;SDS011;766;51.502;9.752;2022-10-14T04:51:09;18.50;;;13.30;;
1545;SDS011;766;51.502;9.752;2022-10-14T04:53:37;23.00;;;14.60;;
1545;SDS011;766;51.502;9.752;2022-10-14T04:56:06;17.17;;;13.07;;
1545;SDS011;766;51.502;9.752;2022-10-14T04:58:35;21.55;;;13.32;;
1545;SDS011;766;51.502;9.752;2022-10-14T05:01:03;19.33;;;13.05;;
1545;SDS011;766;51.502;9.752;2022-10-14T05:03:33;18.98;;;13.10;;
1545;SDS011;766;51.502;9.752;2022-10-14T05:06:01;16.13;;;12.57;;
1545;SDS011;766;51.502;9.752;2022-10-14T05:08:30;20.13;;;12.20;;
1545;SDS011;766;51.502;9.752;2022-10-14T05:10:59;18.65;;;12.18;;
1545;SDS011;766;51.502;9.752;2022-10-14T05:13:30;21.45;;;13.23;;
1545;SDS011;766;51.502;9.752;2022-10-14T05:15:59;18.10;;;12.45;;
1545;SDS011;766;51.502;9.752;2022-10-14T05:18:28;18.52;;;11.77;;
1545;SDS011;766;51.502;9.752;2022-10-14T05:20:59;21.02;;;12.07;;
1545;SDS011;766;51.502;9.752;2022-10-14T05:23:28;18.17;;;11.98;;
1545;SDS011;766;51.502;9.752;2022-10-14T05:25:56;19.20;;;12.30;;
1545;SDS011;766;51.502;9.752;2022-10-14T05:28:25;16.33;;;12.38;;
1545;SDS011;766;51.502;9.752;2022-10-14T05:30:53;18.48;;;11.75;;
1545;SDS011;766;51.502;9.752;2022-10-14T05:33:22;18.58;;;11.40;;
1545;SDS011;766;51.502;9.752;2022-10-14T05:35:50;18.33;;;12.27;;
1545;SDS011;766;51.502;9.752;2022-10-14T05:38:26;15.63;;;12.35;;
1545;SDS011;766;51.502;9.752;2022-10-14T05:40:54;13.07;;;10.38;;
1545;SDS011;766;51.502;9.752;2022-10-14T05:43:23;15.98;;;12.00;;
1545;SDS011;766;51.502;9.752;2022-10-14T05:45:57;20.30;;;12.32;;
1545;SDS011;766;51.502;9.752;2022-10-14T05:48:26;18.50;;;11.70;;
1545;SDS011;766;51.502;9.752;2022-10-14T05:50:55;18.40;;;11.65;;
1545;SDS011;766;51.502;9.752;2022-10-14T05:53:31;18.58;;;11.43;;
1545;SDS011;766;51.502;9.752;2022-10-14T05:56:00;17.98;;;11.50;;
1545;SDS011;766;51.502;9.752;2022-10-14T05:58:29;18.40;;;11.98;;
1545;SDS011;766;51.502;9.752;2022-10-14T06:00:58;21.38;;;12.52;;
1545;SDS011;766;51.502;9.752;2022-10-14T06:03:27;19.20;;;12.60;;
1545;SDS011;766;51.502;9.752;2022-10-14T06:05:55;20.50;;;13.07;;
1545;SDS011;766;51.502;9.752;2022-10-14T06:08:24;24.15;;;12.50;;
1545;SDS011;766;51.502;9.752;2022-10-14T06:10:54;16.08;;;12.02;;
1545;SDS011;766;51.502;9.752;2022-10-14T06:13:24;19.98;;;12.50;;
1545;SDS011;766;51.502;9.752;2022-10-14T06:15:54;22.48;;;12.43;;
1545;SDS011;766;51.502;9.752;2022-10-14T06:18:23;20.65;;;12.57;;
1545;SDS011;766;51.502;9.752;2022-10-14T06:20:51;20.52;;;13.43;;
1545;SDS011;766;51.502;9.752;2022-10-14T06:23:20;16.23;;;11.88;;
1545;SDS011;766;51.502;9.752;2022-10-14T06:25:51;18.27;;;12.05;;
1545;SDS011;766;51.502;9.752;2022-10-14T06:28:21;19.63;;;12.70;;
1545;SDS011;766;51.502;9.752;2022-10-14T06:30:50;17.98;;;12.18;;
1545;SDS011;766;51.502;9.752;2022-10-14T06:33:19;18.50;;;11.57;;
1545;SDS011;766;51.502;9.752;2022-10-14T06:35:48;19.45;;;12.13;;
1545;SDS011;766;51.502;9.752;2022-10-14T06:38:17;17.88;;;12.00;;
1545;SDS011;766;51.502;9.752;2022-10-14T06:40:45;19.52;;;11.38;;
1545;SDS011;766;51.502;9.752;2022-10-14T06:43:16;16.90;;;11.10;;
1545;SDS011;766;51.502;9.752;2022-10-14T06:45:46;14.35;;;11.15;;
1545;SDS011;766;51.502;9.752;2022-10-14T06:48:15;17.05;;;11.10;;
1545;SDS011;766;51.502;9.752;2022-10-14T06:50:43;13.82;;;10.98;;
1545;SDS011;766;51.502;9.752;2022-10-14T06:53:11;16.08;;;10.38;;
1545;SDS011;766;51.502;9.752;2022-10-14T06:55:43;18.52;;;10.68;;
1545;SDS011;766;51.502;9.752;2022-10-14T06:58:12;15.57;;;10.20;;
1545;SDS011;766;51.502;9.752;2022-10-14T07:00:42;14.02;;;9.32;;
1545;SDS011;766;51.502;9.752;2022-10-14T07:03:15;15.25;;;10.05;;
1545;SDS011;766;51.502;9.752;2022-10-14T07:05:46;15.85;;;10.50;;
1545;SDS011;766;51.502;9.752;2022-10-14T07:08:14;15.25;;;10.45;;
1545;SDS011;766;51.502;9.752;2022-10-14T07:10:43;14.20;;;10.25;;
1545;SDS011;766;51.502;9.752;2022-10-14T07:13:13;18.30;;;9.93;;
1545;SDS011;766;51.502;9.752;2022-10-14T07:15:41;13.63;;;9.63;;
1545;SDS011;766;51.502;9.752;2022-10-14T07:18:10;15.15;;;9.85;;
1545;SDS011;766;51.502;9.752;2022-10-14T07:20:40;13.13;;;9.40;;
1545;SDS011;766;51.502;9.752;2022-10-14T07:23:08;16.13;;;9.38;;
1545;SDS011;766;51.502;9.752;2022-10-14T07:25:37;12.73;;;8.68;;
1545;SDS011;766;51.502;9.752;2022-10-14T07:28:05;15.15;;;9.18;;
1545;SDS011;766;51.502;9.752;2022-10-14T07:30:33;13.60;;;9.38;;
1545;SDS011;766;51.502;9.752;2022-10-14T07:33:01;14.52;;;9.30;;
1545;SDS011;766;51.502;9.752;2022-10-14T07:35:30;15.88;;;9.60;;
1545;SDS011;766;51.502;9.752;2022-10-14T07:38:00;15.75;;;9.18;;
1545;SDS011;766;51.502;9.752;2022-10-14T07:40:28;14.07;;;9.38;;
1545;SDS011;766;51.502;9.752;2022-10-14T07:42:56;13.25;;;9.35;;
1545;SDS011;766;51.502;9.752;2022-10-14T07:45:25;14.00;;;9.05;;
1545;SDS011;766;51.502;9.752;2022-10-14T07:48:03;15.40;;;9.18;;
1545;SDS011;766;51.502;9.752;2022-10-14T07:50:32;16.90;;;10.02;;
1545;SDS011;766;51.502;9.752;2022-10-14T07:53:05;14.85;;;10.18;;
1545;SDS011;766;51.502;9.752;2022-10-14T07:55:35;16.63;;;10.77;;
1545;SDS011;766;51.502;9.752;2022-10-14T07:58:18;15.38;;;10.50;;
1545;SDS011;766;51.502;9.752;2022-10-14T08:00:47;17.60;;;10.80;;
1545;SDS011;766;51.502;9.752;2022-10-14T08:03:17;14.90;;;10.00;;
1545;SDS011;766;51.502;9.752;2022-10-14T08:05:46;16.15;;;10.52;;
1545;SDS011;766;51.502;9.752;2022-10-14T08:08:23;13.18;;;9.35;;
1545;SDS011;766;51.502;9.752;2022-10-14T08:11:06;18.90;;;10.65;;
1545;SDS011;766;51.502;9.752;2022-10-14T08:13:36;14.98;;;9.88;;
1545;SDS011;766;51.502;9.752;2022-10-14T08:16:12;19.88;;;10.52;;
1545;SDS011;766;51.502;9.752;2022-10-14T08:18:42;12.88;;;9.52;;
1545;SDS011;766;51.502;9.752;2022-10-14T08:21:11;17.50;;;8.90;;
1545;SDS011;766;51.502;9.752;2022-10-14T08:23:45;11.93;;;8.20;;
1545;SDS011;766;51.502;9.752;2022-10-14T08:26:16;13.50;;;7.90;;
1545;SDS011;766;51.502;9.752;2022-10-14T08:28:47;13.32;;;7.47;;
1545;SDS011;766;51.502;9.752;2022-10-14T08:31:16;10.38;;;7.05;;
1545;SDS011;766;51.502;9.752;2022-10-14T08:33:44;9.60;;;6.65;;
1545;SDS011;766;51.502;9.752;2022-10-14T08:36:13;10.20;;;6.47;;
1545;SDS011;766;51.502;9.752;2022-10-14T08:38:45;6.72;;;6.03;;
1545;SDS011;766;51.502;9.752;2022-10-14T08:41:19;8.35;;;5.78;;
1545;SDS011;766;51.502;9.752;2022-10-14T08:44:10;8.57;;;5.70;;
1545;SDS011;766;51.502;9.752;2022-10-14T08:46:44;7.80;;;4.80;;
1545;SDS011;766;51.502;9.752;2022-10-14T08:49:20;7.47;;;4.97;;
1545;SDS011;766;51.502;9.752;2022-10-14T08:51:54;4.88;;;4.38;;
1545;SDS011;766;51.502;9.752;2022-10-14T08:54:28;6.45;;;4.68;;
1545;SDS011;766;51.502;9.752;2022-10-14T08:57:02;7.20;;;4.45;;
1545;SDS011;766;51.502;9.752;2022-10-14T08:59:33;5.53;;;3.70;;
1545;SDS011;766;51.502;9.752;2022-10-14T09:02:13;5.05;;;4.15;;
1545;SDS011;766;51.502;9.752;2022-10-14T09:04:49;5.20;;;4.13;;
1545;SDS011;766;51.502;9.752;2022-10-14T09:07:19;5.65;;;3.70;;
1545;SDS011;766;51.502;9.752;2022-10-14T09:09:50;3.72;;;2.95;;
1545;SDS011;766;51.502;9.752;2022-10-14T09:12:25;3.13;;;2.78;;
1545;SDS011;766;51.502;9.752;2022-10-14T09:14:57;4.15;;;3.05;;
1545;SDS011;766;51.502;9.752;2022-10-14T09:17:33;6.28;;;2.67;;
1545;SDS011;766;51.502;9.752;2022-10-14T09:20:12;5.35;;;2.53;;
1545;SDS011;766;51.502;9.752;2022-10-14T09:22:49;3.75;;;3.00;;
1545;SDS011;766;51.502;9.752;2022-10-14T09:25:30;3.30;;;2.85;;
1545;SDS011;766;51.502;9.752;2022-10-14T09:28:01;3.47;;;2.63;;
1545;SDS011;766;51.502;9.752;2022-10-14T09:30:32;3.50;;;2.47;;
1545;SDS011;766;51.502;9.752;2022-10-14T09:33:03;3.03;;;2.70;;
1545;SDS011;766;51.502;9.752;2022-10-14T09:35:33;3.88;;;2.50;;
1545;SDS011;766;51.502;9.752;2022-10-14T09:38:03;3.15;;;2.65;;
1545;SDS011;766;51.502;9.752;2022-10-14T09:40:35;5.82;;;2.80;;
1545;SDS011;766;51.502;9.752;2022-10-14T09:43:09;2.88;;;2.63;;
1545;SDS011;766;51.502;9.752;2022-10-14T09:45:47;2.58;;;2.38;;
1545;SDS011;766;51.502;9.752;2022-10-14T09:48:19;3.28;;;2.20;;
1545;SDS011;766;51.502;9.752;2022-10-14T09:50:58;3.08;;;2.53;;
1545;SDS011;766;51.502;9.752;2022-10-14T09:53:29;4.07;;;2.50;;
1545;SDS011;766;51.502;9.752;2022-10-14T09:56:01;3.08;;;2.78;;
1545;SDS011;766;51.502;9.752;2022-10-14T09:58:32;3.78;;;2.78;;
1545;SDS011;766;51.502;9.752;2022-10-14T10:01:05;3.83;;;2.95;;
1545;SDS011;766;51.502;9.752;2022-10-14T10:03:38;4.63;;;2.80;;
1545;SDS011;766;51.502;9.752;2022-10-14T10:06:08;3.53;;;3.22;;
1545;SDS011;766;51.502;9.752;2022-10-14T10:08:39;3.92;;;3.10;;
1545;SDS011;766;51.502;9.752;2022-10-14T10:11:10;4.05;;;3.40;;
1545;SDS011;766;51.502;9.752;2022-10-14T10:13:40;5.90;;;3.15;;
1545;SDS011;766;51.502;9.752;2022-10-14T10:16:18;4.13;;;3.20;;
1545;SDS011;766;51.502;9.752;2022-10-14T10:18:49;3.25;;;2.90;;
1545;SDS011;766;51.502;9.752;2022-10-14T10:21:21;2.60;;;2.40;;
1545;SDS011;766;51.502;9.752;2022-10-14T10:23:53;5.63;;;2.42;;
1545;SDS011;766;51.502;9.752;2022-10-14T10:26:27;5.60;;;2.65;;
1545;SDS011;766;51.502;9.752;2022-10-14T10:28:59;3.88;;;2.70;;
1545;SDS011;766;51.502;9.752;2022-10-14T10:31:41;4.20;;;2.60;;
1545;SDS011;766;51.502;9.752;2022-10-14T10:37:26;5.00;;;2.97;;
1545;SDS011;766;51.502;9.752;2022-10-14T10:40:02;4.30;;;3.20;;
1545;SDS011;766;51.502;9.752;2022-10-14T10:42:57;2.65;;;2.40;;
1545;SDS011;766;51.502;9.752;2022-10-14T10:45:37;6.03;;;2.80;;
1545;SDS011;766;51.502;9.752;2022-10-14T10:48:18;3.70;;;3.08;;
1545;SDS011;766;51.502;9.752;2022-10-14T10:50:54;5.93;;;3.08;;
1545;SDS011;766;51.502;9.752;2022-10-14T10:53:29;4.28;;;3.40;;
1545;SDS011;766;51.502;9.752;2022-10-14T10:56:09;5.60;;;2.88;;
1545;SDS011;766;51.502;9.752;2022-10-14T10:58:49;4.28;;;3.30;;
1545;SDS011;766;51.502;9.752;2022-10-14T11:01:35;4.45;;;3.25;;
1545;SDS011;766;51.502;9.752;2022-10-14T11:04:15;3.90;;;3.55;;
1545;SDS011;766;51.502;9.752;2022-10-14T11:06:55;5.47;;;3.78;;
1545;SDS011;766;51.502;9.752;2022-10-14T11:09:55;4.80;;;3.90;;
1545;SDS011;766;51.502;9.752;2022-10-14T11:12:57;7.05;;;3.80;;
1545;SDS011;766;51.502;9.752;2022-10-14T11:15:42;5.40;;;3.50;;
1545;SDS011;766;51.502;9.752;2022-10-14T11:18:15;8.77;;;3.85;;
1545;SDS011;766;51.502;9.752;2022-10-14T11:20:58;5.22;;;3.63;;
1545;SDS011;766;51.502;9.752;2022-10-14T11:23:36;4.05;;;3.40;;
1545;SDS011;766;51.502;9.752;2022-10-14T11:26:20;5.45;;;3.60;;
1545;SDS011;766;51.502;9.752;2022-10-14T11:29:17;4.30;;;3.33;;
1545;SDS011;766;51.502;9.752;2022-10-14T11:32:18;3.83;;;3.38;;
1545;SDS011;766;51.502;9.752;2022-10-14T11:34:52;4.85;;;2.97;;
1545;SDS011;766;51.502;9.752;2022-10-14T11:37:36;3.40;;;3.05;;
1545;SDS011;766;51.502;9.752;2022-10-14T11:40:15;5.85;;;3.28;;
1545;SDS011;766;51.502;9.752;2022-10-14T11:42:54;6.72;;;3.28;;
1545;SDS011;766;51.502;9.752;2022-10-14T11:45:37;4.95;;;3.10;;
1545;SDS011;766;51.502;9.752;2022-10-14T11:48:23;3.08;;;2.78;;
1545;SDS011;766;51.502;9.752;2022-10-14T11:50:57;4.40;;;3.50;;
1545;SDS011;766;51.502;9.752;2022-10-14T11:53:37;3.70;;;3.33;;
1545;SDS011;766;51.502;9.752;2022-10-14T11:56:28;4.15;;;2.95;;
1545;SDS011;766;51.502;9.752;2022-10-14T12:01:57;3.88;;;2.90;;
1545;SDS011;766;51.502;9.752;2022-10-14T12:04:34;5.03;;;2.80;;
1545;SDS011;766;51.502;9.752;2022-10-14T12:07:07;7.60;;;2.70;;
1545;SDS011;766;51.502;9.752;2022-10-14T12:09:40;3.00;;;2.30;;
1545;SDS011;766;51.502;9.752;2022-10-14T12:12:12;5.03;;;2.65;;
1545;SDS011;766;51.502;9.752;2022-10-14T12:14:46;3.15;;;2.85;;
1545;SDS011;766;51.502;9.752;2022-10-14T12:17:18;4.28;;;3.15;;
1545;SDS011;766;51.502;9.752;2022-10-14T12:19:52;4.53;;;3.10;;
1545;SDS011;766;51.502;9.752;2022-10-14T12:22:21;3.50;;;3.00;;
1545;SDS011;766;51.502;9.752;2022-10-14T12:24:53;6.20;;;4.47;;
1545;SDS011;766;51.502;9.752;2022-10-14T12:27:24;4.97;;;3.00;;
1545;SDS011;766;51.502;9.752;2022-10-14T12:29:54;5.07;;;2.70;;
1545;SDS011;766;51.502;9.752;2022-10-14T12:32:24;4.57;;;2.85;;
1545;SDS011;766;51.502;9.752;2022-10-14T12:34:57;8.40;;;4.47;;
1545;SDS011;766;51.502;9.752;2022-10-14T12:40:26;4.93;;;2.83;;
1545;SDS011;766;51.502;9.752;2022-10-14T12:43:02;4.43;;;3.25;;
1545;SDS011;766;51.502;9.752;2022-10-14T12:45:57;4.60;;;3.30;;
1545;SDS011;766;51.502;9.752;2022-10-14T12:48:29;3.35;;;3.05;;
1545;SDS011;766;51.502;9.752;2022-10-14T12:51:11;4.47;;;2.83;;
1545;SDS011;766;51.502;9.752;2022-10-14T12:53:57;4.70;;;2.80;;
1545;SDS011;766;51.502;9.752;2022-10-14T12:56:33;5.10;;;3.22;;
1545;SDS011;766;51.502;9.752;2022-10-14T12:59:05;4.80;;;3.00;;
1545;SDS011;766;51.502;9.752;2022-10-14T13:01:35;4.93;;;3.08;;
1545;SDS011;766;51.502;9.752;2022-10-14T13:04:05;5.97;;;3.00;;
1545;SDS011;766;51.502;9.752;2022-10-14T13:09:42;6.85;;;3.20;;
1545;SDS011;766;51.502;9.752;2022-10-14T13:24:20;3.92;;;2.80;;
1545;SDS011;766;51.502;9.752;2022-10-14T13:27:00;3.25;;;2.83;;
1545;SDS011;766;51.502;9.752;2022-10-14T13:29:43;6.85;;;2.55;;
1545;SDS011;766;51.502;9.752;2022-10-14T13:32:28;5.65;;;3.05;;
1545;SDS011;766;51.502;9.752;2022-10-14T13:35:05;5.68;;;2.72;;
1545;SDS011;766;51.502;9.752;2022-10-14T13:37:42;4.22;;;2.80;;
1545;SDS011;766;51.502;9.752;2022-10-14T13:40:18;3.45;;;2.70;;
1545;SDS011;766;51.502;9.752;2022-10-14T13:42:50;4.57;;;2.80;;
1545;SDS011;766;51.502;9.752;2022-10-14T13:45:22;4.03;;;2.70;;
1545;SDS011;766;51.502;9.752;2022-10-14T13:47:57;3.65;;;2.60;;
1545;SDS011;766;51.502;9.752;2022-10-14T13:50:30;3.80;;;2.63;;
1545;SDS011;766;51.502;9.752;2022-10-14T13:53:04;5.40;;;2.97;;
1545;SDS011;766;51.502;9.752;2022-10-14T13:55:43;5.45;;;2.88;;
1545;SDS011;766;51.502;9.752;2022-10-14T13:58:21;4.90;;;2.50;;
1545;SDS011;766;51.502;9.752;2022-10-14T14:00:51;6.60;;;2.83;;
1545;SDS011;766;51.502;9.752;2022-10-14T14:03:29;3.20;;;2.90;;
1545;SDS011;766;51.502;9.752;2022-10-14T14:06:01;3.00;;;2.70;;
1545;SDS011;766;51.502;9.752;2022-10-14T14:08:37;4.45;;;2.72;;
1545;SDS011;766;51.502;9.752;2022-10-14T14:11:18;3.63;;;2.88;;
1545;SDS011;766;51.502;9.752;2022-10-14T14:13:51;4.88;;;3.10;;
1545;SDS011;766;51.502;9.752;2022-10-14T14:16:28;4.25;;;2.50;;
1545;SDS011;766;51.502;9.752;2022-10-14T14:18:58;6.45;;;2.50;;
1545;SDS011;766;51.502;9.752;2022-10-14T14:21:36;4.68;;;2.90;;
1545;SDS011;766;51.502;9.752;2022-10-14T14:24:09;7.28;;;2.88;;
1545;SDS011;766;51.502;9.752;2022-10-14T14:26:46;3.97;;;3.25;;
1545;SDS011;766;51.502;9.752;2022-10-14T14:29:18;5.65;;;2.47;;
1545;SDS011;766;51.502;9.752;2022-10-14T14:31:49;4.25;;;3.10;;
1545;SDS011;766;51.502;9.752;2022-10-14T14:34:34;3.97;;;2.78;;
1545;SDS011;766;51.502;9.752;2022-10-14T14:37:04;5.70;;;2.80;;
1545;SDS011;766;51.502;9.752;2022-10-14T14:39:56;5.35;;;3.28;;
1545;SDS011;766;51.502;9.752;2022-10-14T14:42:26;3.63;;;3.00;;
1545;SDS011;766;51.502;9.752;2022-10-14T14:45:03;7.72;;;3.53;;
1545;SDS011;766;51.502;9.752;2022-10-14T14:47:34;4.72;;;3.20;;
1545;SDS011;766;51.502;9.752;2022-10-14T14:50:03;3.78;;;3.03;;
1545;SDS011;766;51.502;9.752;2022-10-14T14:52:53;5.50;;;3.63;;
1545;SDS011;766;51.502;9.752;2022-10-14T14:55:34;5.75;;;3.55;;
1545;SDS011;766;51.502;9.752;2022-10-14T14:58:12;4.80;;;3.30;;
1545;SDS011;766;51.502;9.752;2022-10-14T15:00:50;5.35;;;3.50;;
1545;SDS011;766;51.502;9.752;2022-10-14T15:03:21;11.30;;;4.00;;
1545;SDS011;766;51.502;9.752;2022-10-14T15:05:52;8.43;;;3.53;;
1545;SDS011;766;51.502;9.752;2022-10-14T15:08:24;5.30;;;3.47;;
1545;SDS011;766;51.502;9.752;2022-10-14T15:10:58;8.43;;;3.63;;
1545;SDS011;766;51.502;9.752;2022-10-14T15:13:28;4.38;;;3.95;;
1545;SDS011;766;51.502;9.752;2022-10-14T15:16:10;5.63;;;3.15;;
1545;SDS011;766;51.502;9.752;2022-10-14T15:18:39;6.20;;;4.00;;
1545;SDS011;766;51.502;9.752;2022-10-14T15:21:15;6.38;;;3.90;;
1545;SDS011;766;51.502;9.752;2022-10-14T15:23:57;3.97;;;3.53;;
1545;SDS011;766;51.502;9.752;2022-10-14T15:26:29;6.25;;;4.15;;
1545;SDS011;766;51.502;9.752;2022-10-14T15:32:03;10.65;;;3.90;;
1545;SDS011;766;51.502;9.752;2022-10-14T15:34:38;6.00;;;3.97;;
1545;SDS011;766;51.502;9.752;2022-10-14T15:37:09;7.95;;;4.30;;
1545;SDS011;766;51.502;9.752;2022-10-14T15:39:39;5.80;;;4.03;;
1545;SDS011;766;51.502;9.752;2022-10-14T15:42:08;7.20;;;4.40;;
1545;SDS011;766;51.502;9.752;2022-10-14T15:44:38;4.80;;;3.60;;
1545;SDS011;766;51.502;9.752;2022-10-14T15:47:08;7.90;;;4.40;;
1545;SDS011;766;51.502;9.752;2022-10-14T15:49:49;7.30;;;4.05;;
1545;SDS011;766;51.502;9.752;2022-10-14T15:52:17;7.72;;;4.47;;
1545;SDS011;766;51.502;9.752;2022-10-14T15:54:51;6.20;;;3.58;;
1545;SDS011;766;51.502;9.752;2022-10-14T15:57:21;7.88;;;3.88;;
1545;SDS011;766;51.502;9.752;2022-10-14T15:59:50;6.13;;;3.83;;
1545;SDS011;766;51.502;9.752;2022-10-14T16:02:20;10.13;;;3.60;;
1545;SDS011;766;51.502;9.752;2022-10-14T16:04:51;8.43;;;3.67;;
1545;SDS011;766;51.502;9.752;2022-10-14T16:07:40;8.80;;;4.20;;
1545;SDS011;766;51.502;9.752;2022-10-14T16:10:09;8.77;;;4.80;;
1545;SDS011;766;51.502;9.752;2022-10-14T16:12:40;8.60;;;4.57;;
1545;SDS011;766;51.502;9.752;2022-10-14T16:15:13;9.27;;;4.63;;
1545;SDS011;766;51.502;9.752;2022-10-14T16:17:51;8.60;;;4.40;;
1545;SDS011;766;51.502;9.752;2022-10-14T16:20:20;6.93;;;4.43;;
1545;SDS011;766;51.502;9.752;2022-10-14T16:22:48;10.02;;;4.20;;